Eikamaru No.2 — JD3056 — position and weather

sailwx.info

Track history (hours):
 
Tides and Currents Weather Stations Pressure Air Temp Water Temp Dewpoint Dewpoint Depression Visibility Wind Speed Wind Dir Waves Ship Positions

Eikamaru No.2

Last reported at 2015-Mar-08 05:26 UTC. Time now 2015-Apr-02 01:25 UTC.
Position N 34°37' E 134°55'.
Warning: this ship's position is 24 days out of date.

Length 60 m; draft 3.3 m.

Type: Tanker. MMSI: 431001342.

Date/timePositionNaut miles runAvg speedWind from/ knotsBaromVisibWave heightAir tempDewpointWater temp
2015-Mar-08 05:26N 34°37' E 134°55'9 9.9
2015-Mar-08 04:33N 34°35' E 135°05'1212.1
2015-Mar-08 03:33N 34°23' E 135°04'1010.1
2015-Mar-08 02:33N 34°13' E 135°07'2 1.7
2015-Mar-08 01:33N 34°13' E 135°09'0 0.0
2015-Mar-08 00:33N 34°13' E 135°09'0 0.0
2015-Mar-07 23:33N 34°13' E 135°09'0 0.0
2015-Mar-07 22:33N 34°13' E 135°09'0 0.1
2015-Mar-07 21:33N 34°13' E 135°09'0 0.0
2015-Mar-07 20:33N 34°13' E 135°09'0 0.0
2015-Mar-07 19:33N 34°13' E 135°09'0 0.0
2015-Mar-07 18:33N 34°13' E 135°09'0 0.0
2015-Mar-07 17:33N 34°13' E 135°09'0 0.0
2015-Mar-07 16:33N 34°13' E 135°09'0 0.0
2015-Mar-07 15:33N 34°13' E 135°09'0 0.0
2015-Mar-07 14:33N 34°13' E 135°09'0 0.0
2015-Mar-07 13:33N 34°13' E 135°09'0 0.0
2015-Mar-07 12:33N 34°13' E 135°09'0 0.0
2015-Mar-07 11:33N 34°13' E 135°09'0 0.0
2015-Mar-07 10:33N 34°13' E 135°09'0 0.0
2015-Mar-07 09:33N 34°13' E 135°09'0 0.0
2015-Mar-07 08:33N 34°13' E 135°09'0 0.0
2015-Mar-07 07:33N 34°13' E 135°09'0 0.0
2015-Mar-07 06:33N 34°13' E 135°09'0 0.0
2015-Mar-07 05:33N 34°13' E 135°09'0 0.0
2015-Mar-07 04:33N 34°13' E 135°09'6 6.0
2015-Mar-07 03:31N 34°18' E 135°04'1212.4
2015-Mar-07 02:33N 34°30' E 135°03'8 7.9
2015-Mar-07 01:33N 34°36' E 134°58'1010.2
2015-Mar-07 00:31N 34°40' E 134°46'11 0.5
2015-Mar-06 02:31N 34°38' E 134°59'9 8.9
2015-Mar-06 01:32N 34°39' E 135°09'0 0.0
2015-Mar-06 00:33N 34°39' E 135°09'2 2.4
2015-Mar-05 23:34N 34°37' E 135°07'9 8.1
2015-Mar-05 22:31N 34°36' E 134°57'  
Track history (hours):
 
Tides and Currents Weather Stations Pressure Air Temp Water Temp Dewpoint Dewpoint Depression Visibility Wind Speed Wind Dir Waves Ship Positions

Eikamaru No.2

Last reported at 2015-Mar-08 05:26 UTC. Time now 2015-Apr-02 01:25 UTC.
Position N 34°37' E 134°55'.
Warning: this ship's position is 24 days out of date.

Length 60 m; draft 3.3 m.

Type: Tanker. MMSI: 431001342.

Date/timePositionNaut miles runAvg speedWind from/ knotsBaromVisibWave heightAir tempDewpointWater temp
2015-Mar-08 05:26N 34°37' E 134°55'9 9.9
2015-Mar-08 04:33N 34°35' E 135°05'1212.1
2015-Mar-08 03:33N 34°23' E 135°04'1010.1
2015-Mar-08 02:33N 34°13' E 135°07'2 1.7
2015-Mar-08 01:33N 34°13' E 135°09'0 0.0
2015-Mar-08 00:33N 34°13' E 135°09'0 0.0
2015-Mar-07 23:33N 34°13' E 135°09'0 0.0
2015-Mar-07 22:33N 34°13' E 135°09'0 0.1
2015-Mar-07 21:33N 34°13' E 135°09'0 0.0
2015-Mar-07 20:33N 34°13' E 135°09'0 0.0
2015-Mar-07 19:33N 34°13' E 135°09'0 0.0
2015-Mar-07 18:33N 34°13' E 135°09'0 0.0
2015-Mar-07 17:33N 34°13' E 135°09'0 0.0
2015-Mar-07 16:33N 34°13' E 135°09'0 0.0
2015-Mar-07 15:33N 34°13' E 135°09'0 0.0
2015-Mar-07 14:33N 34°13' E 135°09'0 0.0
2015-Mar-07 13:33N 34°13' E 135°09'0 0.0
2015-Mar-07 12:33N 34°13' E 135°09'0 0.0
2015-Mar-07 11:33N 34°13' E 135°09'0 0.0
2015-Mar-07 10:33N 34°13' E 135°09'0 0.0
2015-Mar-07 09:33N 34°13' E 135°09'0 0.0
2015-Mar-07 08:33N 34°13' E 135°09'0 0.0
2015-Mar-07 07:33N 34°13' E 135°09'0 0.0
2015-Mar-07 06:33N 34°13' E 135°09'0 0.0
2015-Mar-07 05:33N 34°13' E 135°09'0 0.0
2015-Mar-07 04:33N 34°13' E 135°09'6 6.0
2015-Mar-07 03:31N 34°18' E 135°04'1212.4
2015-Mar-07 02:33N 34°30' E 135°03'8 7.9
2015-Mar-07 01:33N 34°36' E 134°58'1010.2
2015-Mar-07 00:31N 34°40' E 134°46'11 0.5
2015-Mar-06 02:31N 34°38' E 134°59'9 8.9
2015-Mar-06 01:32N 34°39' E 135°09'0 0.0
2015-Mar-06 00:33N 34°39' E 135°09'2 2.4
2015-Mar-05 23:34N 34°37' E 135°07'9 8.1
2015-Mar-05 22:31N 34°36' E 134°57'  

Dump ship's entire track history